Estatísticas do Tribal Wars: Mundo 102: Player

Perfil do jogador no Tribal Wars: ArcanjoGabriel (conquistas)

Tipo Proprietário Anterior Nobrada por Tribo Anterior Tribo Posterior Pontos Mín/Máx Período  
/

>1< [2] [todos] 32
  Aldeia Pontos Proprietário anterior Novo proprietário Data/Tempo
297 Ragnar (312|504) K53 1,182 Aldeias de Bárbaros ArcanjoGabriel [LoBoS*] 2020-11-11 02:07:15
326 Ragnar (314|509) K53 2,754 ketelim ArcanjoGabriel 2020-11-09 04:02:42
0300 - Nobre (309|500) K53 1,541 kakarotoegoku [JEDI] ArcanjoGabriel 2020-11-02 20:51:44
322 Ragnar (308|502) K53 838 geantibico ArcanjoGabriel [LoBoS*] 2020-10-20 01:49:09
199 Izi Pizi (465|569) K54 1,591 ArcanjoGabriel Augusto TJF [PG-] 2020-09-29 11:02:16
070 NOKE DESTROYER (465|576) K54 10,019 ArcanjoGabriel * FuiFiél * [LOCK] 2020-09-29 02:26:40
038 - EXORCISTA DA LOCK (467|582) K54 11,099 ArcanjoGabriel ConstanTine - [LOCK] 2020-09-29 00:07:06
057 Nobre - Why Not? (468|582) K54 2,804 ArcanjoGabriel Cuinha [LOCK] 2020-09-29 00:02:30
079 Nobre - Why Not? (467|581) K54 9,828 ArcanjoGabriel Cuinha [LOCK] 2020-09-29 00:01:02
095 Nobre - Why Not? (463|574) K54 4,932 ArcanjoGabriel Cuinha [LOCK] 2020-09-29 00:01:00
013 Nobre - Why Not? (466|580) K54 7,675 ArcanjoGabriel Cuinha [LOCK] 2020-09-29 00:01:00
088 Nobre - Why Not? (463|578) K54 7,480 ArcanjoGabriel Cuinha [LOCK] 2020-09-29 00:00:20
036 - EXORCISTA DA LOCK (467|592) K54 6,715 ArcanjoGabriel ConstanTine - [LOCK] 2020-09-28 23:59:59
035 - EXORCISTA DA LOCK (467|591) K54 6,039 ArcanjoGabriel ConstanTine - [LOCK] 2020-09-28 23:59:58
037 - EXORCISTA DA LOCK (461|572) K54 8,422 ArcanjoGabriel ConstanTine - [LOCK] 2020-09-28 23:57:00
033 NOKE DESTROYER (470|581) K54 12,241 ArcanjoGabriel * FuiFiél * [LOCK] 2020-09-28 23:55:33
080 NOKE DESTROYER (459|572) K54 5,000 ArcanjoGabriel [PG*] * FuiFiél * [LOCK] 2020-09-28 23:41:10
065 NOKE DESTROYER (471|581) K54 2,741 ArcanjoGabriel [PG*] * FuiFiél * [LOCK] 2020-09-28 23:11:53
199 Izi Pizi (465|569) K54 1,522 lippe99 [PG-] ArcanjoGabriel [PG*] 2020-09-28 21:55:15
065 NOKE DESTROYER (471|581) K54 1,902 Kal-El23 [BBII] ArcanjoGabriel [PG*] 2020-09-20 17:33:17
>1< [2] [todos] 32

2022-08-10 16:26:23 -03